createdAt,value
2023-05-21T00:01:11.238Z,88.50
2023-05-21T00:03:42.410Z,88.73
2023-05-21T00:06:09.888Z,89.10
2023-05-21T00:08:37.395Z,89.08
2023-05-21T00:11:04.646Z,89.26
2023-05-21T00:13:31.995Z,89.40
2023-05-21T00:15:59.344Z,89.28
2023-05-21T00:18:27.016Z,89.07
2023-05-21T00:20:55.190Z,88.96
2023-05-21T00:23:22.443Z,88.73
2023-05-21T00:25:51.210Z,88.50
2023-05-21T00:28:20.410Z,88.97
2023-05-21T00:30:48.158Z,89.13
2023-05-21T00:33:17.628Z,89.18
2023-05-21T00:35:44.841Z,89.11
2023-05-21T00:38:12.075Z,88.83
2023-05-21T00:40:41.682Z,88.78
2023-05-21T00:43:10.573Z,89.11
2023-05-21T00:45:38.305Z,89.21
2023-05-21T00:48:06.854Z,89.10
2023-05-21T00:50:34.597Z,89.38
2023-05-21T00:53:01.848Z,89.74
2023-05-21T00:55:29.300Z,89.89
2023-05-21T00:57:56.650Z,90.41
2023-05-21T01:00:26.877Z,90.53
2023-05-21T01:02:54.520Z,90.97
2023-05-21T01:05:22.605Z,91.62
2023-05-21T01:07:49.939Z,91.36
2023-05-21T01:10:17.111Z,91.99
2023-05-21T01:12:44.652Z,92.53
2023-05-21T01:15:12.757Z,92.48
2023-05-21T01:17:40.461Z,92.83
2023-05-21T01:20:11.414Z,93.59
2023-05-21T01:22:42.778Z,94.24
2023-05-21T01:25:11.228Z,94.07
2023-05-21T01:27:38.406Z,94.11
2023-05-21T01:30:06.696Z,94.36
2023-05-21T01:32:42.911Z,94.72
2023-05-21T01:35:39.324Z,94.67
2023-05-21T01:38:18.737Z,94.54
2023-05-21T01:41:05.505Z,94.23
2023-05-21T01:43:34.736Z,93.42
2023-05-21T01:46:02.212Z,92.89
2023-05-21T01:48:30.383Z,93.20
2023-05-21T01:50:59.269Z,93.79
2023-05-21T01:53:26.725Z,94.43
2023-05-21T01:55:54.950Z,94.44
2023-05-21T01:58:23.366Z,94.81
2023-05-21T02:00:55.024Z,94.62
2023-05-21T02:03:26.142Z,94.35
2023-05-21T02:05:53.722Z,94.17
2023-05-21T02:08:21.166Z,94.38
2023-05-21T02:10:48.309Z,93.68
2023-05-21T02:13:16.300Z,93.34
2023-05-21T02:15:43.651Z,93.67
2023-05-21T02:18:11.912Z,94.43
2023-05-21T02:20:39.182Z,95.20
2023-05-21T02:23:06.678Z,95.57
2023-05-21T02:25:34.282Z,95.82
2023-05-21T02:28:02.892Z,96.15
2023-05-21T02:30:30.239Z,96.75
2023-05-21T02:32:59.318Z,96.77
2023-05-21T02:35:27.373Z,96.92
2023-05-21T02:37:59.598Z,97.42
2023-05-21T02:40:27.018Z,97.12
2023-05-21T02:42:54.274Z,97.12
2023-05-21T02:45:21.943Z,97.20
2023-05-21T02:47:49.455Z,96.76
2023-05-21T02:50:18.599Z,96.64
2023-05-21T02:52:51.169Z,96.37
2023-05-21T02:55:18.515Z,97.05
2023-05-21T02:57:45.779Z,97.83
2023-05-21T03:00:14.170Z,98.44
2023-05-21T03:02:42.945Z,98.46
2023-05-21T03:05:10.843Z,98.18
2023-05-21T03:07:39.064Z,98.12
2023-05-21T03:10:07.351Z,98.61
2023-05-21T03:12:34.602Z,99.01
2023-05-21T03:15:02.159Z,99.45
2023-05-21T03:17:29.534Z,99.89
2023-05-21T03:19:58.505Z,99.82
2023-05-21T03:22:25.972Z,99.99
2023-05-21T03:24:53.827Z,99.92
2023-05-21T03:27:21.381Z,99.84
2023-05-21T03:29:49.459Z,99.78
2023-05-21T03:32:17.173Z,99.76
2023-05-21T03:34:45.732Z,99.74
2023-05-21T03:37:13.058Z,99.74
2023-05-21T03:39:41.239Z,99.66
2023-05-21T03:42:08.365Z,99.58
2023-05-21T03:44:44.231Z,99.55
2023-05-21T03:47:29.922Z,99.62
2023-05-21T03:49:58.402Z,99.40
2023-05-21T03:52:25.965Z,99.48
2023-05-21T03:54:53.420Z,99.08
2023-05-21T03:57:21.278Z,98.14
2023-05-21T03:59:49.454Z,97.43
2023-05-21T04:02:16.963Z,96.38
2023-05-21T04:04:45.837Z,94.94
2023-05-21T04:07:15.652Z,93.84
2023-05-21T04:09:43.199Z,93.78
2023-05-21T04:12:13.700Z,93.63
2023-05-21T04:14:41.572Z,93.03
2023-05-21T04:17:10.128Z,91.69
2023-05-21T04:19:38.428Z,89.46
2023-05-21T04:22:06.081Z,88.30
2023-05-21T04:24:34.054Z,86.19
2023-05-21T04:27:24.106Z,86.99
2023-05-21T04:29:51.685Z,87.08
2023-05-21T04:32:18.941Z,85.94
2023-05-21T04:34:46.394Z,85.08
2023-05-21T04:37:14.174Z,84.32
2023-05-21T04:39:41.419Z,80.59
2023-05-21T04:42:11.281Z,80.08
2023-05-21T04:44:40.685Z,80.67
2023-05-21T04:47:08.546Z,79.27
2023-05-21T04:49:36.687Z,77.40
2023-05-21T04:52:04.525Z,78.11
2023-05-21T04:54:31.791Z,77.68
2023-05-21T04:56:59.358Z,76.74
2023-05-21T04:59:26.590Z,76.99
2023-05-21T05:01:53.846Z,75.60
2023-05-21T05:04:22.337Z,75.40
2023-05-21T05:06:50.011Z,75.88
2023-05-21T05:09:17.449Z,76.81
2023-05-21T05:11:45.245Z,75.92
2023-05-21T05:14:12.568Z,75.20
2023-05-21T05:16:40.071Z,73.77
2023-05-21T05:19:07.548Z,72.32
2023-05-21T05:21:35.036Z,72.37
2023-05-21T05:24:02.201Z,73.30
2023-05-21T05:26:29.952Z,72.07
2023-05-21T05:28:57.605Z,73.05
2023-05-21T05:31:25.265Z,73.52
2023-05-21T05:33:53.060Z,72.57
2023-05-21T05:36:21.823Z,71.32
2023-05-21T05:38:49.210Z,71.72
2023-05-21T05:41:16.837Z,71.25
2023-05-21T05:43:44.085Z,70.47
2023-05-21T05:46:11.398Z,70.32
2023-05-21T05:48:41.153Z,70.16
2023-05-21T05:51:09.748Z,69.31
2023-05-21T05:53:37.081Z,68.33
2023-05-21T05:56:05.477Z,68.20
2023-05-21T05:58:33.545Z,68.57
2023-05-21T06:01:10.016Z,68.03
2023-05-21T06:03:37.416Z,68.37
2023-05-21T06:06:13.973Z,67.66
2023-05-21T06:08:41.271Z,68.20
2023-05-21T06:11:08.613Z,66.90
2023-05-21T06:13:36.191Z,69.07
2023-05-21T06:16:04.251Z,67.16
2023-05-21T06:18:31.532Z,66.61
2023-05-21T06:21:00.324Z,65.83
2023-05-21T06:23:27.980Z,66.67
2023-05-21T06:25:55.621Z,67.39
2023-05-21T06:28:24.031Z,66.23
2023-05-21T06:30:51.876Z,66.04
2023-05-21T06:33:20.868Z,65.23
2023-05-21T06:35:48.320Z,64.25
2023-05-21T06:38:15.797Z,64.82
2023-05-21T06:40:44.980Z,65.79
2023-05-21T06:43:14.339Z,66.83
2023-05-21T06:46:00.242Z,65.98
2023-05-21T06:48:46.896Z,67.32
2023-05-21T06:51:16.879Z,65.43
2023-05-21T06:53:44.643Z,66.68
2023-05-21T06:56:15.487Z,66.04
2023-05-21T06:58:43.958Z,66.23
2023-05-21T07:01:12.741Z,62.88
2023-05-21T07:03:40.035Z,62.35
2023-05-21T07:06:08.584Z,63.57
2023-05-21T07:08:36.461Z,63.70
2023-05-21T07:11:04.030Z,64.23
2023-05-21T07:13:31.450Z,62.16
2023-05-21T07:15:58.822Z,61.99
2023-05-21T07:18:26.695Z,62.18
2023-05-21T07:20:54.436Z,61.88
2023-05-21T07:23:21.910Z,60.91
2023-05-21T07:25:50.689Z,60.29
2023-05-21T07:28:19.344Z,60.43
2023-05-21T07:30:46.930Z,60.63
2023-05-21T07:33:17.583Z,60.21
2023-05-21T07:35:45.236Z,60.03
2023-05-21T07:38:12.579Z,59.80
2023-05-21T07:40:39.936Z,60.01
2023-05-21T07:43:07.292Z,60.13
2023-05-21T07:45:36.390Z,59.23
2023-05-21T07:48:06.176Z,57.75
2023-05-21T07:50:34.273Z,58.63
2023-05-21T07:53:01.674Z,59.03
2023-05-21T07:55:31.242Z,60.33
2023-05-21T07:57:58.795Z,58.35
2023-05-21T08:00:30.158Z,57.91
2023-05-21T08:03:00.186Z,58.58
2023-05-21T08:05:29.256Z,58.53
2023-05-21T08:07:57.516Z,58.58
2023-05-21T08:10:25.195Z,57.92
2023-05-21T08:12:52.755Z,56.99
2023-05-21T08:15:20.201Z,56.59
2023-05-21T08:17:51.221Z,55.70
2023-05-21T08:20:21.174Z,55.11
2023-05-21T08:22:48.960Z,56.02
2023-05-21T08:25:17.019Z,55.57
2023-05-21T08:27:44.665Z,54.58
2023-05-21T08:30:12.515Z,55.83
2023-05-21T08:32:39.832Z,55.99
2023-05-21T08:35:08.716Z,55.07
2023-05-21T08:38:03.055Z,54.57
2023-05-21T08:40:44.325Z,52.75
2023-05-21T08:43:15.067Z,53.12
2023-05-21T08:45:51.753Z,53.58
2023-05-21T08:48:19.073Z,54.21
2023-05-21T08:50:47.181Z,52.26
2023-05-21T08:53:27.508Z,54.25
2023-05-21T08:56:00.232Z,54.05
2023-05-21T08:58:47.937Z,55.01
2023-05-21T09:01:19.878Z,54.59
2023-05-21T09:03:49.711Z,53.49
2023-05-21T09:06:16.850Z,53.23
2023-05-21T09:08:46.758Z,52.26
2023-05-21T09:11:27.781Z,54.16
2023-05-21T09:13:57.034Z,53.77
2023-05-21T09:16:50.768Z,54.36
2023-05-21T09:19:22.295Z,52.46
2023-05-21T09:21:52.008Z,53.76
2023-05-21T09:24:23.141Z,53.73
2023-05-21T09:26:51.685Z,54.36
2023-05-21T09:29:20.605Z,54.51
2023-05-21T09:31:48.172Z,54.44
2023-05-21T09:34:17.556Z,54.73
2023-05-21T09:36:46.337Z,54.98
2023-05-21T09:39:16.757Z,53.85
2023-05-21T09:41:44.768Z,51.68
2023-05-21T09:44:12.089Z,51.46
2023-05-21T09:46:42.883Z,52.22
2023-05-21T09:49:26.819Z,53.80
2023-05-21T09:52:01.077Z,52.41
2023-05-21T09:54:32.603Z,52.19
2023-05-21T09:57:04.294Z,52.44
2023-05-21T09:59:39.047Z,54.16
2023-05-21T10:02:20.532Z,54.94
2023-05-21T10:04:51.607Z,51.98
2023-05-21T10:07:22.380Z,49.74
2023-05-21T10:09:49.513Z,51.31
2023-05-21T10:12:18.335Z,52.22
2023-05-21T10:14:46.066Z,51.22
2023-05-21T10:17:13.209Z,49.83
2023-05-21T10:19:40.834Z,49.62
2023-05-21T10:22:08.445Z,49.64
2023-05-21T10:24:35.801Z,49.23
2023-05-21T10:27:04.264Z,48.73
2023-05-21T10:29:31.534Z,49.05
2023-05-21T10:31:58.918Z,47.18
2023-05-21T10:34:26.435Z,48.25
2023-05-21T10:36:53.813Z,49.03
2023-05-21T10:39:21.239Z,49.52
2023-05-21T10:42:32.737Z,50.40
2023-05-21T10:45:24.901Z,48.43
2023-05-21T10:48:23.351Z,48.22
2023-05-21T10:51:29.567Z,47.90
2023-05-21T10:54:12.865Z,46.81
2023-05-21T10:56:45.330Z,47.07
2023-05-21T10:59:41.655Z,47.52
2023-05-21T11:02:09.544Z,48.61
2023-05-21T11:04:40.276Z,48.49
2023-05-21T11:07:07.833Z,48.72
2023-05-21T11:09:35.385Z,47.00
2023-05-21T11:12:04.986Z,45.56
2023-05-21T11:14:37.149Z,46.53
2023-05-21T11:17:10.519Z,48.06
2023-05-21T11:19:42.355Z,47.34
2023-05-21T11:22:30.874Z,48.17
2023-05-21T11:25:01.502Z,47.72
2023-05-21T11:27:36.833Z,47.64
2023-05-21T11:30:10.773Z,46.47
2023-05-21T11:32:40.516Z,46.58
2023-05-21T11:35:08.407Z,46.22
2023-05-21T11:37:35.883Z,44.27
2023-05-21T11:40:26.606Z,44.78
2023-05-21T11:42:54.983Z,45.42
2023-05-21T11:45:23.459Z,45.84
2023-05-21T11:47:51.178Z,47.04
2023-05-21T11:50:18.536Z,45.74
2023-05-21T11:52:45.931Z,46.99
2023-05-21T11:55:15.970Z,46.61
2023-05-21T11:57:45.107Z,44.64
2023-05-21T12:00:16.850Z,45.70
2023-05-21T12:02:50.312Z,47.00
2023-05-21T12:05:17.720Z,46.49
2023-05-21T12:07:48.992Z,45.92
2023-05-21T12:10:17.246Z,45.23
2023-05-21T12:12:54.804Z,46.55
2023-05-21T12:15:24.460Z,45.07
2023-05-21T12:17:53.426Z,45.04
2023-05-21T12:20:21.158Z,45.17
2023-05-21T12:22:51.317Z,44.28
2023-05-21T12:25:21.834Z,44.45
2023-05-21T12:27:50.524Z,44.84
2023-05-21T12:30:17.574Z,44.73
2023-05-21T12:32:45.008Z,43.44
2023-05-21T12:35:23.245Z,42.55
2023-05-21T12:37:51.434Z,42.65
2023-05-21T12:40:18.694Z,43.68
2023-05-21T12:42:46.365Z,44.25
2023-05-21T12:45:14.195Z,42.55
2023-05-21T12:47:41.595Z,40.95
2023-05-21T12:50:12.234Z,40.38
2023-05-21T12:52:40.822Z,40.87
2023-05-21T12:55:10.963Z,42.30
2023-05-21T12:57:42.132Z,41.81
2023-05-21T13:00:12.917Z,42.16
2023-05-21T13:02:42.191Z,40.38
2023-05-21T13:05:11.500Z,41.47
2023-05-21T13:07:39.849Z,41.63
2023-05-21T13:10:08.005Z,41.47
2023-05-21T13:12:35.144Z,41.64
2023-05-21T13:15:03.136Z,40.38
2023-05-21T13:17:30.772Z,41.55
2023-05-21T13:20:15.380Z,41.95
2023-05-21T13:22:45.562Z,41.50
2023-05-21T13:25:16.215Z,40.32
2023-05-21T13:27:43.760Z,40.69
2023-05-21T13:30:14.261Z,42.45
2023-05-21T13:32:42.352Z,41.77
2023-05-21T13:35:10.437Z,41.46
2023-05-21T13:37:37.779Z,42.27
2023-05-21T13:40:06.744Z,41.58
2023-05-21T13:42:34.894Z,41.46
2023-05-21T13:45:02.092Z,41.62
2023-05-21T13:47:29.405Z,41.36
2023-05-21T13:49:56.596Z,42.86
2023-05-21T13:52:24.149Z,41.51
2023-05-21T13:54:53.563Z,40.54
2023-05-21T13:57:21.216Z,40.02
2023-05-21T13:59:48.675Z,41.11
2023-05-21T14:02:18.931Z,40.73
2023-05-21T14:04:46.355Z,40.49
2023-05-21T14:07:13.730Z,40.57
2023-05-21T14:09:41.037Z,40.05
2023-05-21T14:12:08.674Z,39.88
2023-05-21T14:14:37.310Z,40.79
2023-05-21T14:17:06.611Z,41.31
2023-05-21T14:19:34.002Z,41.69
2023-05-21T14:22:01.726Z,42.12
2023-05-21T14:24:29.170Z,40.99
2023-05-21T14:26:56.643Z,41.47
2023-05-21T14:29:23.915Z,42.80
2023-05-21T14:31:51.290Z,43.55
2023-05-21T14:34:18.498Z,43.43
2023-05-21T14:36:45.956Z,42.91
2023-05-21T14:39:13.206Z,42.53
2023-05-21T14:41:40.764Z,41.00
2023-05-21T14:44:09.247Z,40.94
2023-05-21T14:46:37.196Z,41.97
2023-05-21T14:49:05.367Z,41.80
2023-05-21T14:51:32.758Z,42.16
2023-05-21T14:54:00.300Z,42.15
2023-05-21T14:56:28.408Z,42.59
2023-05-21T14:58:55.911Z,42.15
2023-05-21T15:01:23.441Z,41.25
2023-05-21T15:03:51.219Z,42.83
2023-05-21T15:06:18.817Z,43.20
2023-05-21T15:08:46.354Z,41.86
2023-05-21T15:11:13.500Z,42.20
2023-05-21T15:13:40.973Z,42.39
2023-05-21T15:16:08.415Z,42.85
2023-05-21T15:18:35.903Z,42.68
2023-05-21T15:21:03.341Z,43.00
2023-05-21T15:23:31.571Z,43.41
2023-05-21T15:25:58.972Z,43.53
2023-05-21T15:28:26.551Z,43.05
2023-05-21T15:30:54.094Z,45.15
2023-05-21T15:33:21.356Z,44.22
2023-05-21T15:35:49.087Z,43.72
2023-05-21T15:38:18.014Z,43.26
2023-05-21T15:40:45.351Z,42.85
2023-05-21T15:43:12.768Z,42.79
2023-05-21T15:45:40.270Z,42.58
2023-05-21T15:48:07.909Z,43.53
2023-05-21T15:50:38.750Z,44.83
2023-05-21T15:53:05.892Z,46.04
2023-05-21T15:55:33.921Z,45.30
2023-05-21T15:58:02.555Z,44.62
2023-05-21T16:00:30.432Z,45.55
2023-05-21T16:02:58.219Z,45.74
2023-05-21T16:05:26.563Z,45.62
2023-05-21T16:07:54.627Z,44.50
2023-05-21T16:10:23.213Z,45.10
2023-05-21T16:12:51.437Z,46.07
2023-05-21T16:15:21.627Z,46.33
2023-05-21T16:17:49.009Z,46.22
2023-05-21T16:20:20.395Z,45.66
2023-05-21T16:22:48.680Z,45.89
2023-05-21T16:25:15.949Z,46.03
2023-05-21T16:27:43.088Z,45.71
2023-05-21T16:30:12.037Z,45.80
2023-05-21T16:32:39.837Z,45.72
2023-05-21T16:35:09.681Z,46.54
2023-05-21T16:37:36.908Z,46.42
2023-05-21T16:40:05.045Z,46.02
2023-05-21T16:42:34.019Z,46.39
2023-05-21T16:45:01.550Z,46.88
2023-05-21T16:47:29.229Z,47.55
2023-05-21T16:49:56.542Z,48.49
2023-05-21T16:52:24.422Z,48.97
2023-05-21T16:54:51.769Z,49.58
2023-05-21T16:57:19.150Z,49.92
2023-05-21T16:59:46.483Z,49.91
2023-05-21T17:02:14.256Z,49.80
2023-05-21T17:04:42.322Z,49.94
2023-05-21T17:07:11.922Z,49.81
2023-05-21T17:09:39.170Z,50.20
2023-05-21T17:12:07.021Z,51.68
2023-05-21T17:14:35.447Z,52.57
2023-05-21T17:17:03.825Z,53.49
2023-05-21T17:19:31.273Z,54.41
2023-05-21T17:21:58.788Z,54.58
2023-05-21T17:24:26.085Z,54.72
2023-05-21T17:26:53.872Z,55.09
2023-05-21T17:29:21.061Z,55.35
2023-05-21T17:31:48.341Z,55.94
2023-05-21T17:34:17.049Z,56.06
2023-05-21T17:36:44.195Z,56.58
2023-05-21T17:39:11.547Z,57.01
2023-05-21T17:41:38.829Z,57.76
2023-05-21T17:44:06.202Z,57.47
2023-05-21T17:46:33.507Z,57.51
2023-05-21T17:49:01.164Z,57.69
2023-05-21T17:51:28.554Z,57.74
2023-05-21T17:53:56.739Z,58.68
2023-05-21T17:56:24.099Z,59.06
2023-05-21T17:58:51.475Z,59.36
2023-05-21T18:01:18.878Z,59.92
2023-05-21T18:03:46.863Z,60.31
2023-05-21T18:06:14.421Z,60.00
2023-05-21T18:08:41.834Z,59.42
2023-05-21T18:11:11.463Z,59.78
2023-05-21T18:13:38.586Z,60.52
2023-05-21T18:16:06.048Z,61.44
2023-05-21T18:18:33.472Z,62.54
2023-05-21T18:21:00.876Z,62.57
2023-05-21T18:23:28.916Z,62.64
2023-05-21T18:25:56.774Z,62.90
2023-05-21T18:28:24.615Z,62.99
2023-05-21T18:30:53.674Z,63.12
2023-05-21T18:33:21.384Z,63.24
2023-05-21T18:35:50.945Z,63.77
2023-05-21T18:38:19.083Z,64.01
2023-05-21T18:40:49.088Z,64.65
2023-05-21T18:43:20.652Z,65.10
2023-05-21T18:45:48.407Z,65.15
2023-05-21T18:48:16.886Z,65.55
2023-05-21T18:50:46.974Z,65.96
2023-05-21T18:53:14.859Z,66.86
2023-05-21T18:55:43.429Z,68.10
2023-05-21T18:58:11.230Z,69.11
2023-05-21T19:00:39.913Z,69.59
2023-05-21T19:03:07.772Z,70.52
2023-05-21T19:05:35.464Z,71.10
2023-05-21T19:08:04.357Z,71.36
2023-05-21T19:10:37.311Z,71.55
2023-05-21T19:13:06.297Z,71.85
2023-05-21T19:15:36.571Z,72.08
2023-05-21T19:18:04.057Z,72.15
2023-05-21T19:20:32.649Z,72.72
2023-05-21T19:23:00.557Z,73.20
2023-05-21T19:25:29.739Z,73.47
2023-05-21T19:27:58.492Z,73.84
2023-05-21T19:30:27.517Z,74.33
2023-05-21T19:32:55.130Z,74.69
2023-05-21T19:35:24.301Z,75.05
2023-05-21T19:40:40.487Z,75.25
2023-05-21T19:43:14.385Z,75.68
2023-05-21T19:45:47.356Z,76.10
2023-05-21T19:48:18.062Z,76.64
2023-05-21T19:50:49.622Z,76.90
2023-05-21T19:53:20.047Z,77.13
2023-05-21T19:55:50.478Z,77.11
2023-05-21T19:58:24.582Z,77.31
2023-05-21T20:01:01.587Z,77.59
2023-05-21T20:03:36.039Z,78.08
2023-05-21T20:06:03.854Z,78.47
2023-05-21T20:08:31.317Z,78.68
2023-05-21T20:11:01.210Z,78.84
2023-05-21T20:13:31.863Z,78.97
2023-05-21T20:16:01.956Z,78.54
2023-05-21T20:18:29.311Z,78.59
2023-05-21T20:21:00.576Z,79.19
2023-05-21T20:23:50.482Z,79.74
2023-05-21T20:26:27.255Z,79.82
2023-05-21T20:29:08.619Z,80.53
2023-05-21T20:31:38.090Z,80.90
2023-05-21T20:34:26.656Z,80.81
2023-05-21T20:37:05.774Z,80.93
2023-05-21T20:39:47.073Z,81.13
2023-05-21T20:42:21.990Z,81.58
2023-05-21T20:44:58.158Z,81.84
2023-05-21T20:47:30.354Z,81.23
2023-05-21T20:50:08.167Z,81.01
2023-05-21T20:52:43.453Z,80.83
2023-05-21T20:55:15.347Z,80.57
2023-05-21T20:57:54.765Z,80.23
2023-05-21T21:00:31.012Z,79.18
2023-05-21T21:03:08.672Z,78.82
2023-05-21T21:05:36.721Z,79.50
2023-05-21T21:08:14.473Z,79.15
2023-05-21T21:10:47.258Z,79.63
2023-05-21T21:13:19.719Z,79.95
2023-05-21T21:15:56.031Z,79.88
2023-05-21T21:18:23.461Z,79.39
2023-05-21T21:20:53.245Z,79.33
2023-05-21T21:23:37.537Z,79.16
2023-05-21T21:26:11.421Z,79.18
2023-05-21T21:28:38.900Z,79.17
2023-05-21T21:31:09.472Z,79.58
2023-05-21T21:33:41.543Z,79.66
2023-05-21T21:36:16.521Z,79.34
2023-05-21T21:38:48.153Z,79.65
2023-05-21T21:41:27.599Z,79.45
2023-05-21T21:43:59.413Z,79.36
2023-05-21T21:46:33.115Z,79.38
2023-05-21T21:49:03.414Z,79.57
2023-05-21T21:51:36.559Z,79.04
2023-05-21T21:54:03.958Z,76.86
2023-05-21T21:56:43.031Z,74.94
2023-05-21T21:59:15.338Z,74.89
2023-05-21T22:01:54.978Z,75.13
2023-05-21T22:04:30.293Z,75.40
2023-05-21T22:07:17.428Z,75.58
2023-05-21T22:09:47.982Z,74.52
2023-05-21T22:12:25.408Z,74.39
2023-05-21T22:15:03.824Z,76.07
2023-05-21T22:17:38.333Z,77.10
2023-05-21T22:20:09.315Z,76.89
2023-05-21T22:22:38.851Z,76.72
2023-05-21T22:25:09.990Z,76.14
2023-05-21T22:27:40.610Z,76.17
2023-05-21T22:30:25.027Z,76.63
2023-05-21T22:33:03.177Z,77.77
2023-05-21T22:35:32.027Z,78.64
2023-05-21T22:38:01.199Z,78.81
2023-05-21T22:40:33.419Z,78.31
2023-05-21T22:43:05.497Z,78.43
2023-05-21T22:45:47.143Z,78.20
2023-05-21T22:48:20.643Z,78.11
2023-05-21T22:51:12.786Z,78.18
2023-05-21T22:53:53.887Z,78.91
2023-05-21T22:56:26.875Z,79.24
2023-05-21T22:59:00.776Z,79.46
2023-05-21T23:01:32.262Z,79.42
2023-05-21T23:04:02.172Z,78.89
2023-05-21T23:06:37.865Z,78.03
2023-05-21T23:09:17.846Z,78.09
2023-05-21T23:11:47.363Z,79.11
2023-05-21T23:14:15.007Z,80.30
2023-05-21T23:16:47.699Z,80.75
2023-05-21T23:19:18.406Z,80.42
2023-05-21T23:22:00.677Z,80.53
2023-05-21T23:24:30.351Z,80.99
2023-05-21T23:27:11.917Z,80.99
2023-05-21T23:29:55.609Z,80.49
2023-05-21T23:32:23.978Z,79.98
2023-05-21T23:34:57.930Z,80.10
2023-05-21T23:37:31.181Z,80.42
2023-05-21T23:40:11.653Z,81.05
2023-05-21T23:42:48.843Z,81.23
2023-05-21T23:45:29.514Z,81.78
2023-05-21T23:47:58.472Z,81.77
2023-05-21T23:50:37.054Z,80.46
2023-05-21T23:53:13.498Z,79.52
2023-05-21T23:55:44.253Z,80.33
2023-05-21T23:58:16.127Z,80.91
